Terminal Aerodrome Forecast
Issued by NWS

Home | Current Version | Previous Version | Graphics & Text | Print | Product List | Glossary On
Versions: 1 2 3 4 5 6 7 8 9 10 11 12 13
000
FTUS43 KGRB 230520
TAFAUW
TAF
KAUW 230520Z 2306/2406 24005KT P6SM SKC
     FM231300 34007KT P6SM BKN250
     FM231600 05008KT P6SM SCT035 BKN070
     FM231900 11010KT P6SM BKN035 BKN070
     FM240100 11010KT P6SM SCT035 BKN070=

USA.gov is the U.S. government's official web portal to all federal, state and local government web resources and services.